Accueil
METAR-TAF:

METAR-TAF

Aéroports :

Londres, Angleterre

Aéroport de Londres-City

latitude: 51-30N, longitude: 000-03E, altitude: 5 m

Observation

Le bulletin a été fait il y a 21 minutes, à 16:20 UTC
Vent 19 kt de ouest
Température 19°C
Humidité 46%
Pression 1018 hPa
Visibilité 10 km ou plus

METAR: EGLC 191620Z AUTO 27019KT 9999 NCD 19/07 Q1018

Heure: 17:41 (16:41 UTC)

Prévision

Le bulletin a été fait il y a 8 heures et 38 minutes, à 08:03 UTC
Prévision valable du 19 à 09 UTC au 19 à 12 UTC
Vent 12 kt de ouest
Visibilité 10 km ou plus
Nuages épars à une hauteur de 2500 ft
Temporairement
du 19 à 09 UTC au 19 à 12 UTC
Vent 15 kt de ouest avec des rafales jusqu'à 25 kt

TAF: EGLC 190803Z 1909/1912 27012KT 9999 SCT025 TEMPO 1909/1912 27015G25KT

Observations et prévisions météorologiques de plus de 4000 aéroports (messages METAR et TAF).

Les stations disponibles sont représentées par des disques jaunes et rouges sur la carte.

Passer la souris dessus pour voir le nom de la station.

Cliquer dessus pour voir les observations et prévisions météorologiques.

Pour changer de carte: cliquez sur les boutons verts avec une croix noire pour zoomer, sur le bouton vert avec un tiret pour effectuer un zoom arrière, ou sur les flèches vertes pour les cartes adjacentes.


METAR-TAF: